Wetterstation Vordersexau
Wetterdaten: Woche 18.08.14 - 24.08.14 (KW34)
Datum Zeit Temp. A. Feuchte A. Luftdruck Regen Wind Richtung Taupunkt Windchill Windben
18.08.2014 00:00 15,6 C 71 % 983,8 hPa 0,0 l/m 12,2 km/h S 10,4 C 12,9 C 12,2 km/h
18.08.2014 01:00 16,6 C 69 % 983,4 hPa 0,0 l/m 0,0 km/h W 10,9 C 16,6 C 0,0 km/h
18.08.2014 02:00 15,1 C 75 % 983,1 hPa 0,0 l/m 0,0 km/h SW 10,7 C 15,1 C 0,0 km/h
18.08.2014 03:00 16,6 C 71 % 982,7 hPa 0,0 l/m 2,5 km/h W 11,3 C 16,6 C 2,5 km/h
18.08.2014 04:00 16,3 C 72 % 982,7 hPa 0,0 l/m 0,0 km/h W-SW 11,2 C 16,3 C 0,0 km/h
18.08.2014 05:00 15,6 C 75 % 982,7 hPa 0,0 l/m 22,7 km/h SW 11,2 C 9,9 C 12,6 km/h
18.08.2014 06:00 15,5 C 76 % 982,7 hPa 0,0 l/m 20,7 km/h W-SW 11,3 C 10,2 C 11,5 km/h
18.08.2014 07:00 15,5 C 76 % 982,9 hPa 0,0 l/m 18,1 km/h SW 11,3 C 10,9 C 10,1 km/h
18.08.2014 08:00 16,1 C 74 % 982,7 hPa 0,0 l/m 2,6 km/h SW 11,5 C 16,1 C 1,4 km/h
18.08.2014 09:00 17,6 C 70 % 982,5 hPa 0,0 l/m 9,7 km/h W 12,1 C 16,1 C 5,4 km/h
18.08.2014 10:00 20,6 C 61 % 982,6 hPa 0,0 l/m 18,8 km/h W-SW 12,8 C 17,2 C 10,4 km/h
18.08.2014 11:00 19,6 C 63 % 982,8 hPa 0,0 l/m 24,0 km/h W-NW 12,4 C 15,0 C 13,3 km/h
18.08.2014 12:00 19,4 C 61 % 983,0 hPa 0,0 l/m 31,1 km/h W 11,7 C 13,7 C 17,3 km/h
18.08.2014 13:00 18,4 C 65 % 982,6 hPa 0,0 l/m 14,9 km/h W-SW 11,7 C 15,3 C 8,3 km/h
18.08.2014 14:00 21,4 C 59 % 982,3 hPa 0,0 l/m 21,4 km/h W 13,0 C 17,8 C 11,9 km/h
18.08.2014 15:00 19,6 C 60 % 982,3 hPa 0,0 l/m 3,2 km/h W-NW 11,6 C 19,6 C 1,8 km/h
18.08.2014 16:00 19,6 C 58 % 982,6 hPa 0,0 l/m 13,0 km/h W 11,1 C 17,3 C 7,2 km/h
18.08.2014 17:00 19,5 C 58 % 982,9 hPa 0,0 l/m 11,0 km/h W-NW 11,0 C 17,8 C 6,1 km/h
18.08.2014 18:00 19,1 C 58 % 983,0 hPa 0,0 l/m 10,4 km/h N-NO 10,6 C 17,5 C 5,8 km/h
18.08.2014 19:00 17,1 C 66 % 983,4 hPa 0,0 l/m 8,4 km/h O 10,7 C 16,1 C 4,7 km/h
18.08.2014 20:00 15,4 C 72 % 983,5 hPa 0,0 l/m 0,0 km/h NO 10,4 C 15,4 C 0,0 km/h
18.08.2014 21:00 14,7 C 77 % 983,8 hPa 0,0 l/m 0,0 km/h NO 10,7 C 14,7 C 0,0 km/h
18.08.2014 22:00 13,9 C 80 % 983,9 hPa 0,0 l/m 0,0 km/h O 10,5 C 13,9 C 0,0 km/h
18.08.2014 23:00 13,9 C 81 % 983,8 hPa 0,0 l/m 0,0 km/h O-SO 10,7 C 13,9 C 0,0 km/h
19.08.2014 00:00 13,7 C 82 % 983,4 hPa 0,0 l/m 0,0 km/h O-SO 10,7 C 13,7 C 0,0 km/h
19.08.2014 01:00 13,9 C 82 % 983,2 hPa 0,0 l/m 0,0 km/h O-SO 10,9 C 13,9 C 0,0 km/h
19.08.2014 02:00 13,3 C 83 % 982,9 hPa 0,0 l/m 0,0 km/h O-SO 10,5 C 13,3 C 0,0 km/h
19.08.2014 03:00 13,1 C 84 % 983,0 hPa 0,0 l/m 0,0 km/h SO 10,5 C 13,1 C 0,0 km/h
19.08.2014 04:00 13,2 C 84 % 983,0 hPa 0,0 l/m 1,1 km/h SO 10,6 C 13,2 C 1,1 km/h
19.08.2014 05:00 13,0 C 85 % 983,0 hPa 0,0 l/m 0,0 km/h SO 10,5 C 13,0 C 0,0 km/h
19.08.2014 06:00 12,9 C 85 % 983,1 hPa 0,0 l/m 0,0 km/h SO 10,4 C 12,9 C 0,0 km/h
19.08.2014 07:00 12,9 C 85 % 983,6 hPa 0,0 l/m 0,0 km/h SO 10,4 C 12,9 C 0,0 km/h
19.08.2014 08:00 13,9 C 85 % 984,1 hPa 0,0 l/m 0,0 km/h W 11,4 C 13,9 C 0,0 km/h
19.08.2014 09:00 19,8 C 71 % 983,8 hPa 0,0 l/m 0,0 km/h W 14,4 C 19,8 C 0,0 km/h
19.08.2014 10:00 19,8 C 66 % 984,1 hPa 0,0 l/m 16,2 km/h W-NW 13,3 C 16,7 C 9,0 km/h
19.08.2014 11:00 22,1 C 57 % 984,0 hPa 0,0 l/m 15,6 km/h W 13,2 C 19,7 C 8,6 km/h
19.08.2014 12:00 23,6 C 52 % 983,9 hPa 0,0 l/m 22,7 km/h W-SW 13,2 C 20,5 C 12,6 km/h
19.08.2014 13:00 22,6 C 49 % 983,8 hPa 0,0 l/m 7,1 km/h W-NW 11,3 C 22,4 C 4,0 km/h
19.08.2014 14:00 21,8 C 48 % 983,6 hPa 0,0 l/m 18,8 km/h W-NW 10,3 C 18,7 C 10,4 km/h
19.08.2014 15:00 23,5 C 44 % 983,8 hPa 0,0 l/m 21,4 km/h W-SW 10,5 C 20,5 C 11,9 km/h
19.08.2014 16:00 26,8 C 35 % 983,8 hPa 0,0 l/m 15,6 km/h W-NW 10,0 C 25,4 C 8,6 km/h
19.08.2014 17:00 27,6 C 35 % 984,0 hPa 0,0 l/m 16,2 km/h N-NO 10,7 C 26,3 C 9,0 km/h
19.08.2014 18:00 22,1 C 46 % 984,1 hPa 0,0 l/m 11,7 km/h NW 9,9 C 20,5 C 6,5 km/h
19.08.2014 19:00 25,4 C 37 % 984,4 hPa 0,0 l/m 1,9 km/h W-NW 9,6 C 25,4 C 1,1 km/h
19.08.2014 20:00 19,2 C 49 % 984,9 hPa 0,0 l/m 0,0 km/h N 8,2 C 19,2 C 0,0 km/h
19.08.2014 21:00 16,5 C 58 % 985,4 hPa 0,0 l/m 0,0 km/h N 8,2 C 16,5 C 0,0 km/h
19.08.2014 22:00 14,9 C 69 % 986,0 hPa 0,0 l/m 0,0 km/h N 9,3 C 14,9 C 0,0 km/h
19.08.2014 23:00 13,5 C 75 % 987,0 hPa 0,0 l/m 0,0 km/h N 9,2 C 13,5 C 0,0 km/h
20.08.2014 00:00 13,5 C 77 % 987,2 hPa 0,0 l/m 0,0 km/h N 9,5 C 13,5 C 0,0 km/h
20.08.2014 01:00 13,3 C 79 % 987,4 hPa 0,0 l/m 0,0 km/h N 9,7 C 13,3 C 0,0 km/h
20.08.2014 02:00 12,5 C 81 % 987,4 hPa 0,0 l/m 0,0 km/h N 9,3 C 12,5 C 0,0 km/h
20.08.2014 03:00 11,0 C 82 % 987,3 hPa 0,0 l/m 0,0 km/h NO 8,0 C 11,0 C 0,0 km/h
20.08.2014 04:00 10,1 C 83 % 987,7 hPa 0,0 l/m 0,0 km/h NO 7,3 C 10,1 C 0,0 km/h
20.08.2014 05:00 8,9 C 84 % 987,8 hPa 0,0 l/m 0,0 km/h NO 6,3 C 8,9 C 0,0 km/h
20.08.2014 06:00 8,7 C 85 % 987,6 hPa 0,0 l/m 0,0 km/h NO 6,3 C 8,7 C 0,0 km/h
20.08.2014 07:00 9,7 C 85 % 987,7 hPa 0,0 l/m 0,0 km/h SO 7,3 C 9,7 C 0,0 km/h
20.08.2014 08:00 12,8 C 84 % 987,6 hPa 0,0 l/m 0,0 km/h N-NW 10,2 C 12,8 C 0,0 km/h
20.08.2014 09:00 21,6 C 59 % 987,6 hPa 0,0 l/m 0,0 km/h W 13,2 C 21,6 C 0,0 km/h
20.08.2014 10:00 18,9 C 61 % 987,5 hPa 0,0 l/m 0,0 km/h W 11,2 C 18,9 C 0,0 km/h
20.08.2014 11:00 23,4 C 48 % 987,5 hPa 0,0 l/m 0,0 km/h W 11,8 C 23,4 C 0,0 km/h
20.08.2014 12:00 23,3 C 44 % 987,3 hPa 0,0 l/m 1,9 km/h NW 10,4 C 23,3 C 1,1 km/h
20.08.2014 13:00 24,0 C 41 % 986,9 hPa 0,0 l/m 0,0 km/h NW 9,9 C 24,0 C 0,0 km/h
20.08.2014 14:00 24,8 C 40 % 986,7 hPa 0,0 l/m 1,9 km/h NW 10,3 C 24,8 C 1,1 km/h
20.08.2014 15:00 21,3 C 48 % 986,7 hPa 0,0 l/m 0,0 km/h N-NO 9,8 C 21,3 C 0,0 km/h
20.08.2014 16:00 23,3 C 46 % 986,6 hPa 0,0 l/m 17,5 km/h N-NO 11,0 C 20,8 C 9,7 km/h
20.08.2014 17:00 24,9 C 39 % 986,6 hPa 0,0 l/m 7,1 km/h N-NO 10,0 C 24,7 C 4,0 km/h
20.08.2014 18:00 20,4 C 47 % 986,5 hPa 0,0 l/m 2,6 km/h N-NO 8,7 C 20,4 C 1,4 km/h
20.08.2014 19:00 16,6 C 56 % 986,5 hPa 0,0 l/m 0,0 km/h N-NO 7,8 C 16,6 C 0,0 km/h
20.08.2014 20:00 15,3 C 64 % 986,6 hPa 0,0 l/m 0,0 km/h N-NO 8,5 C 15,3 C 0,0 km/h
20.08.2014 21:00 13,4 C 70 % 987,4 hPa 0,0 l/m 0,0 km/h N-NO 8,0 C 13,4 C 0,0 km/h
20.08.2014 22:00 12,8 C 77 % 987,9 hPa 0,0 l/m 0,0 km/h O-SO 8,9 C 12,8 C 0,0 km/h
20.08.2014 23:00 12,9 C 78 % 988,2 hPa 0,0 l/m 0,0 km/h O-NO 9,2 C 12,9 C 0,0 km/h
21.08.2014 00:00 12,1 C 82 % 988,1 hPa 0,0 l/m 0,0 km/h O-NO 9,1 C 12,1 C 0,0 km/h
21.08.2014 01:00 11,1 C 83 % 988,5 hPa 0,0 l/m 0,0 km/h O 8,3 C 11,1 C 0,0 km/h
21.08.2014 02:00 9,6 C 84 % 988,6 hPa 0,0 l/m 0,0 km/h O-NO 7,0 C 9,6 C 0,0 km/h
21.08.2014 03:00 9,6 C 85 % 989,0 hPa 0,0 l/m 0,0 km/h O-NO 7,2 C 9,6 C 0,0 km/h
21.08.2014 04:00 9,3 C 85 % 988,9 hPa 0,0 l/m 0,0 km/h NO 6,9 C 9,3 C 0,0 km/h
21.08.2014 05:00 8,8 C 85 % 988,9 hPa 0,0 l/m 0,0 km/h O-SO 6,4 C 8,8 C 0,0 km/h
21.08.2014 06:00 8,1 C 86 % 989,0 hPa 0,0 l/m 0,0 km/h O-SO 5,9 C 8,1 C 0,0 km/h
21.08.2014 07:00 8,3 C 85 % 988,9 hPa 0,0 l/m 0,0 km/h SO 5,9 C 8,3 C 0,0 km/h
21.08.2014 08:00 10,2 C 84 % 989,2 hPa 0,0 l/m 1,3 km/h SO 7,6 C 10,2 C 0,7 km/h
21.08.2014 09:00 20,1 C 70 % 989,3 hPa 0,0 l/m 0,0 km/h SW 14,5 C 20,1 C 0,0 km/h
21.08.2014 10:00 23,5 C 54 % 989,0 hPa 0,0 l/m 0,0 km/h W 13,6 C 23,5 C 0,0 km/h
21.08.2014 11:00 24,2 C 49 % 989,0 hPa 0,0 l/m 0,0 km/h N-NO 12,8 C 24,2 C 0,0 km/h
21.08.2014 12:00 24,6 C 44 % 988,7 hPa 0,0 l/m 10,4 km/h W 11,5 C 23,6 C 5,8 km/h
21.08.2014 13:00 25,2 C 38 % 988,4 hPa 0,0 l/m 0,0 km/h W 9,9 C 25,2 C 0,0 km/h
21.08.2014 14:00 24,5 C 39 % 987,9 hPa 0,0 l/m 2,6 km/h W-NW 9,6 C 24,5 C 1,4 km/h
21.08.2014 15:00 26,3 C 37 % 987,4 hPa 0,0 l/m 0,0 km/h N-NW 10,4 C 26,3 C 0,0 km/h
21.08.2014 16:00 28,3 C 34 % 986,9 hPa 0,0 l/m 0,0 km/h N 10,9 C 28,3 C 0,0 km/h
21.08.2014 17:00 30,6 C 30 % 986,7 hPa 0,0 l/m 23,3 km/h W-NW 11,0 C 29,8 C 13,0 km/h
21.08.2014 18:00 28,9 C 31 % 986,6 hPa 0,0 l/m 0,0 km/h NW 10,1 C 28,9 C 0,0 km/h
21.08.2014 19:00 24,9 C 39 % 986,6 hPa 0,0 l/m 0,0 km/h N-NO 10,0 C 24,9 C 0,0 km/h
21.08.2014 20:00 17,6 C 54 % 986,9 hPa 0,0 l/m 0,0 km/h N-NO 8,2 C 17,6 C 0,0 km/h
21.08.2014 21:00 14,1 C 67 % 987,2 hPa 0,0 l/m 0,0 km/h O-NO 8,1 C 14,1 C 0,0 km/h
21.08.2014 22:00 12,8 C 73 % 987,6 hPa 0,0 l/m 0,0 km/h O-SO 8,1 C 12,8 C 0,0 km/h
21.08.2014 23:00 11,8 C 76 % 987,8 hPa 0,0 l/m 0,0 km/h O-NO 7,7 C 11,8 C 0,0 km/h
22.08.2014 00:00 11,6 C 79 % 987,7 hPa 0,0 l/m 0,0 km/h O-NO 8,1 C 11,6 C 0,0 km/h
22.08.2014 01:00 11,5 C 80 % 987,5 hPa 0,0 l/m 0,0 km/h SO 8,2 C 11,5 C 0,0 km/h
22.08.2014 02:00 11,2 C 81 % 987,7 hPa 0,0 l/m 0,0 km/h SO 8,1 C 11,2 C 0,0 km/h
22.08.2014 03:00 10,2 C 82 % 987,7 hPa 0,0 l/m 0,0 km/h SO 7,3 C 10,2 C 0,0 km/h
22.08.2014 04:00 9,8 C 83 % 987,3 hPa 0,0 l/m 0,0 km/h SO 7,1 C 9,8 C 0,0 km/h
22.08.2014 05:00 9,3 C 84 % 986,8 hPa 0,0 l/m 0,0 km/h SO 6,7 C 9,3 C 0,0 km/h
22.08.2014 06:00 9,9 C 84 % 986,7 hPa 0,0 l/m 0,0 km/h SO 7,3 C 9,9 C 0,0 km/h
22.08.2014 07:00 10,4 C 84 % 986,9 hPa 0,0 l/m 0,0 km/h S-SW 7,8 C 10,4 C 0,0 km/h
22.08.2014 08:00 12,6 C 83 % 987,1 hPa 0,0 l/m 0,0 km/h N-NO 9,8 C 12,6 C 0,0 km/h
22.08.2014 09:00 20,9 C 62 % 986,9 hPa 0,0 l/m 0,0 km/h W 13,3 C 20,9 C 0,0 km/h
22.08.2014 10:00 23,8 C 51 % 987,0 hPa 0,0 l/m 7,1 km/h S-SW 13,0 C 23,6 C 4,0 km/h
22.08.2014 11:00 21,5 C 54 % 987,1 hPa 0,0 l/m 2,6 km/h W 11,8 C 21,5 C 1,4 km/h
22.08.2014 12:00 24,3 C 45 % 986,6 hPa 0,0 l/m 13,6 km/h SW 11,6 C 22,7 C 7,6 km/h
22.08.2014 13:00 24,9 C 38 % 986,2 hPa 0,0 l/m 5,2 km/h NW 9,6 C 24,9 C 2,9 km/h
22.08.2014 14:00 23,2 C 45 % 985,9 hPa 0,0 l/m 11,7 km/h W 10,6 C 21,8 C 6,5 km/h
22.08.2014 15:00 24,6 C 39 % 985,7 hPa 0,0 l/m 24,0 km/h SW 9,7 C 21,7 C 13,3 km/h
22.08.2014 16:00 26,1 C 40 % 985,4 hPa 0,0 l/m 7,8 km/h SW 11,4 C 25,8 C 4,3 km/h
22.08.2014 17:00 22,9 C 44 % 984,9 hPa 0,0 l/m 27,9 km/h SW 10,0 C 19,0 C 15,5 km/h
22.08.2014 18:00 21,5 C 47 % 985,0 hPa 0,0 l/m 19,4 km/h W-SW 9,7 C 18,2 C 10,8 km/h
22.08.2014 19:00 23,9 C 43 % 984,8 hPa 0,0 l/m 22,7 km/h W 10,5 C 20,9 C 12,6 km/h
22.08.2014 20:00 17,4 C 54 % 985,1 hPa 0,0 l/m 0,0 km/h N-NO 8,0 C 17,4 C 0,0 km/h
22.08.2014 21:00 13,6 C 69 % 986,1 hPa 0,0 l/m 0,0 km/h O 8,0 C 13,6 C 0,0 km/h
22.08.2014 22:00 11,9 C 74 % 986,4 hPa 0,0 l/m 0,0 km/h O 7,4 C 11,9 C 0,0 km/h
22.08.2014 23:00 11,0 C 78 % 986,5 hPa 0,0 l/m 0,0 km/h O 7,3 C 11,0 C 0,0 km/h
23.08.2014 00:00 10,4 C 80 % 986,2 hPa 0,0 l/m 0,0 km/h O 7,1 C 10,4 C 0,0 km/h
23.08.2014 01:00 10,3 C 82 % 986,4 hPa 0,0 l/m 0,0 km/h SO 7,4 C 10,3 C 0,0 km/h
23.08.2014 02:00 9,6 C 83 % 986,2 hPa 0,0 l/m 0,0 km/h SO 6,9 C 9,6 C 0,0 km/h
23.08.2014 03:00 10,4 C 84 % 986,1 hPa 0,0 l/m 0,0 km/h O-SO 7,8 C 10,4 C 0,0 km/h
23.08.2014 04:00 11,2 C 83 % 986,2 hPa 0,0 l/m 0,0 km/h SO 8,4 C 11,2 C 0,0 km/h
23.08.2014 05:00 11,4 C 83 % 986,5 hPa 0,0 l/m 0,0 km/h SO 8,6 C 11,4 C 0,0 km/h
23.08.2014 06:00 11,6 C 84 % 986,6 hPa 0,0 l/m 0,0 km/h SO 9,0 C 11,6 C 0,0 km/h
23.08.2014 07:00 11,8 C 84 % 986,5 hPa 0,0 l/m 0,0 km/h SO 9,2 C 11,8 C 0,0 km/h
23.08.2014 08:00 15,1 C 83 % 986,7 hPa 0,0 l/m 0,0 km/h W-SW 12,2 C 15,1 C 0,0 km/h
23.08.2014 09:00 20,9 C 66 % 986,5 hPa 0,0 l/m 1,9 km/h W-SW 14,3 C 20,9 C 1,1 km/h
23.08.2014 10:00 23,1 C 54 % 986,5 hPa 0,0 l/m 1,9 km/h W 13,3 C 23,1 C 1,1 km/h
23.08.2014 11:00 23,8 C 48 % 986,6 hPa 0,0 l/m 22,0 km/h W 12,1 C 20,9 C 12,2 km/h
23.08.2014 12:00 23,4 C 49 % 986,4 hPa 0,0 l/m 13,0 km/h S 12,1 C 21,7 C 7,2 km/h
23.08.2014 13:00 20,9 C 54 % 986,4 hPa 0,0 l/m 16,8 km/h W-SW 11,2 C 18,0 C 9,4 km/h
23.08.2014 14:00 21,3 C 56 % 986,1 hPa 0,0 l/m 22,7 km/h SW 12,2 C 17,5 C 12,6 km/h
23.08.2014 15:00 23,3 C 49 % 985,9 hPa 0,0 l/m 13,6 km/h W-SW 12,0 C 21,5 C 7,6 km/h
23.08.2014 16:00 18,9 C 58 % 986,2 hPa 0,0 l/m 11,7 km/h N-NO 10,5 C 16,9 C 6,5 km/h
23.08.2014 17:00 16,9 C 64 % 986,9 hPa 0,0 l/m 9,7 km/h S 10,0 C 15,3 C 5,4 km/h
23.08.2014 18:00 14,9 C 74 % 987,3 hPa 0,0 l/m 3,2 km/h SO 10,3 C 14,9 C 1,8 km/h
23.08.2014 19:00 13,8 C 81 % 987,3 hPa 0,2 l/m 0,0 km/h SO 10,6 C 13,8 C 0,0 km/h
23.08.2014 20:00 13,2 C 82 % 987,5 hPa 0,0 l/m 0,0 km/h NO 10,2 C 13,2 C 0,0 km/h
23.08.2014 21:00 12,8 C 84 % 988,5 hPa 0,0 l/m 0,0 km/h S-SO 10,2 C 12,8 C 0,0 km/h
23.08.2014 22:00 12,5 C 84 % 988,7 hPa 0,2 l/m 0,0 km/h N-NO 9,9 C 12,5 C 0,0 km/h
23.08.2014 23:00 12,1 C 84 % 988,9 hPa 0,0 l/m 0,0 km/h N-NO 9,5 C 12,1 C 0,0 km/h
24.08.2014 00:00 11,7 C 85 % 989,2 hPa 0,0 l/m 0,0 km/h N-NO 9,3 C 11,7 C 0,0 km/h
24.08.2014 01:00 11,8 C 85 % 989,2 hPa 0,0 l/m 0,0 km/h S-SW 9,4 C 11,8 C 0,0 km/h
24.08.2014 02:00 11,4 C 85 % 990,0 hPa 0,2 l/m 0,0 km/h SO 9,0 C 11,4 C 0,0 km/h
24.08.2014 03:00 10,8 C 86 % 989,6 hPa 0,0 l/m 0,0 km/h SO 8,6 C 10,8 C 0,0 km/h
24.08.2014 04:00 10,4 C 85 % 990,1 hPa 0,0 l/m 0,0 km/h SO 8,0 C 10,4 C 0,0 km/h
24.08.2014 05:00 8,5 C 86 % 990,3 hPa 0,0 l/m 0,0 km/h O-NO 6,3 C 8,5 C 0,0 km/h
24.08.2014 06:00 7,6 C 86 % 990,9 hPa 0,0 l/m 0,0 km/h O-NO 5,4 C 7,6 C 0,0 km/h
24.08.2014 07:00 7,6 C 86 % 991,3 hPa 0,0 l/m 0,0 km/h O-NO 5,4 C 7,6 C 0,0 km/h
24.08.2014 08:00 9,4 C 84 % 991,7 hPa 0,0 l/m 0,0 km/h O 6,8 C 9,4 C 0,0 km/h
24.08.2014 09:00 18,9 C 72 % 992,1 hPa 0,0 l/m 0,0 km/h S-SW 13,7 C 18,9 C 0,0 km/h
24.08.2014 10:00 21,4 C 57 % 992,4 hPa 0,0 l/m 0,0 km/h W 12,5 C 21,4 C 0,0 km/h
24.08.2014 11:00 22,0 C 53 % 992,4 hPa 0,0 l/m 1,9 km/h S-SW 12,0 C 22,0 C 1,1 km/h
24.08.2014 12:00 21,1 C 50 % 991,9 hPa 0,0 l/m 18,8 km/h W 10,3 C 17,8 C 10,4 km/h
24.08.2014 13:00 16,5 C 59 % 991,6 hPa 0,0 l/m 0,0 km/h SO 8,5 C 16,5 C 0,0 km/h
24.08.2014 14:00 20,7 C 54 % 991,3 hPa 0,2 l/m 38,2 km/h N-NO 11,1 C 14,9 C 21,2 km/h
24.08.2014 15:00 18,1 C 56 % 990,8 hPa 0,0 l/m 0,0 km/h N 9,2 C 18,1 C 0,0 km/h
24.08.2014 16:00 19,2 C 56 % 990,6 hPa 0,0 l/m 0,0 km/h W-SW 10,2 C 19,2 C 0,0 km/h
24.08.2014 17:00 28,4 C 37 % 990,1 hPa 0,0 l/m 0,0 km/h SW 12,3 C 28,4 C 0,0 km/h
24.08.2014 18:00 29,4 C 33 % 989,7 hPa 0,0 l/m 0,0 km/h S-SW 11,4 C 29,4 C 0,0 km/h
24.08.2014 19:00 19,2 C 51 % 990,0 hPa 0,0 l/m 0,0 km/h S-SO 8,8 C 19,2 C 0,0 km/h
24.08.2014 20:00 14,1 C 69 % 990,2 hPa 0,0 l/m 0,0 km/h SO 8,5 C 14,1 C 0,0 km/h
24.08.2014 21:00 12,4 C 74 % 990,7 hPa 0,0 l/m 0,0 km/h SO 7,9 C 12,4 C 0,0 km/h
24.08.2014 22:00 10,9 C 78 % 990,8 hPa 0,0 l/m 0,0 km/h O-SO 7,2 C 10,9 C 0,0 km/h
24.08.2014 23:00 9,9 C 81 % 990,8 hPa 0,0 l/m 0,0 km/h O 6,8 C 9,9 C 0,0 km/h
Min-Datum _ 24.08.14 21.08.14 18.08.14 - 18.08.14 - 24.08.14 24.08.14 18.08.14
_ Min-Zeit 06:19 17:19 14:19 - 01:19 - 06:19 06:19 01:19
Minimum _ 7,6 C 30 % 982,3 hPa - 0,0 km/h - 5,4 C 7,6 C 0,0 km/h
Max-Datum _ 21.08.14 21.08.14 24.08.14 23.08.14 24.08.14 - 21.08.14 21.08.14 24.08.14
_ Max-Zeit 17:19 06:19 10:19 19:19 14:19 - 09:19 17:19 14:19
Maximum _ 30,6 C 86 % 992,4 hPa 0,2 l/m 38,2 km/h
N-NO
- 14,5 C 29,8 C 21,2 km/h
N-NO
Durchschnitt _ 16,8 C 66 % 986,6 hPa #0,8 l/m 4,6 km/h SO 9,9 C 16,2 C 2,6 km/h
www.sexauwetter.de